sensor_id;sensor_type;location;lat;lon;timestamp;P1;durP1;ratioP1;P2;durP2;ratioP2
26080;SDS011;13991;51.174;4.438;2024-01-15T00:02:04;21.97;;;4.90;;
26080;SDS011;13991;51.174;4.438;2024-01-15T00:04:31;16.63;;;5.33;;
26080;SDS011;13991;51.174;4.438;2024-01-15T00:07:01;19.83;;;4.57;;
26080;SDS011;13991;51.174;4.438;2024-01-15T00:09:27;21.43;;;4.07;;
26080;SDS011;13991;51.174;4.438;2024-01-15T00:11:52;21.67;;;4.73;;
26080;SDS011;13991;51.174;4.438;2024-01-15T00:14:18;16.03;;;4.67;;
26080;SDS011;13991;51.174;4.438;2024-01-15T00:16:45;10.20;;;3.23;;
26080;SDS011;13991;51.174;4.438;2024-01-15T00:19:11;9.43;;;2.77;;
26080;SDS011;13991;51.174;4.438;2024-01-15T00:21:36;11.77;;;2.63;;
26080;SDS011;13991;51.174;4.438;2024-01-15T00:24:02;8.67;;;1.17;;
26080;SDS011;13991;51.174;4.438;2024-01-15T00:26:28;4.10;;;0.87;;
26080;SDS011;13991;51.174;4.438;2024-01-15T00:28:53;2.30;;;0.43;;
26080;SDS011;13991;51.174;4.438;2024-01-15T00:31:19;2.87;;;0.40;;
26080;SDS011;13991;51.174;4.438;2024-01-15T00:33:46;2.90;;;0.40;;
26080;SDS011;13991;51.174;4.438;2024-01-15T00:36:11;2.87;;;0.40;;
26080;SDS011;13991;51.174;4.438;2024-01-15T00:38:37;6.73;;;0.70;;
26080;SDS011;13991;51.174;4.438;2024-01-15T00:41:03;0.60;;;0.30;;
26080;SDS011;13991;51.174;4.438;2024-01-15T00:43:29;8.37;;;0.70;;
26080;SDS011;13991;51.174;4.438;2024-01-15T00:45:55;1.10;;;0.40;;
26080;SDS011;13991;51.174;4.438;2024-01-15T00:48:20;3.87;;;0.80;;
26080;SDS011;13991;51.174;4.438;2024-01-15T00:50:46;5.40;;;0.67;;
26080;SDS011;13991;51.174;4.438;2024-01-15T00:53:12;1.50;;;0.40;;
26080;SDS011;13991;51.174;4.438;2024-01-15T00:55:37;9.83;;;0.60;;
26080;SDS011;13991;51.174;4.438;2024-01-15T00:58:03;2.80;;;0.60;;
26080;SDS011;13991;51.174;4.438;2024-01-15T01:00:29;3.60;;;0.40;;
26080;SDS011;13991;51.174;4.438;2024-01-15T01:02:54;5.40;;;0.50;;
26080;SDS011;13991;51.174;4.438;2024-01-15T01:05:20;13.70;;;1.20;;
26080;SDS011;13991;51.174;4.438;2024-01-15T01:07:46;4.33;;;0.50;;
26080;SDS011;13991;51.174;4.438;2024-01-15T01:10:11;17.43;;;4.10;;
26080;SDS011;13991;51.174;4.438;2024-01-15T01:12:37;9.03;;;0.50;;
26080;SDS011;13991;51.174;4.438;2024-01-15T01:15:03;4.23;;;0.63;;
26080;SDS011;13991;51.174;4.438;2024-01-15T01:17:29;7.57;;;0.90;;
26080;SDS011;13991;51.174;4.438;2024-01-15T01:19:55;6.13;;;1.37;;
26080;SDS011;13991;51.174;4.438;2024-01-15T01:22:21;11.33;;;1.17;;
26080;SDS011;13991;51.174;4.438;2024-01-15T01:24:46;8.20;;;1.03;;
26080;SDS011;13991;51.174;4.438;2024-01-15T01:27:12;11.20;;;1.07;;
26080;SDS011;13991;51.174;4.438;2024-01-15T01:29:38;4.93;;;0.80;;
26080;SDS011;13991;51.174;4.438;2024-01-15T01:32:03;7.33;;;0.70;;
26080;SDS011;13991;51.174;4.438;2024-01-15T01:34:29;6.70;;;1.17;;
26080;SDS011;13991;51.174;4.438;2024-01-15T01:36:58;8.87;;;1.10;;
26080;SDS011;13991;51.174;4.438;2024-01-15T01:39:23;12.37;;;1.40;;
26080;SDS011;13991;51.174;4.438;2024-01-15T01:41:49;4.73;;;1.97;;
26080;SDS011;13991;51.174;4.438;2024-01-15T01:44:15;5.27;;;2.50;;
26080;SDS011;13991;51.174;4.438;2024-01-15T01:46:40;7.20;;;2.30;;
26080;SDS011;13991;51.174;4.438;2024-01-15T01:49:07;9.63;;;2.40;;
26080;SDS011;13991;51.174;4.438;2024-01-15T01:51:34;12.87;;;3.13;;
26080;SDS011;13991;51.174;4.438;2024-01-15T01:54:01;11.87;;;2.90;;
26080;SDS011;13991;51.174;4.438;2024-01-15T01:56:27;14.37;;;2.50;;
26080;SDS011;13991;51.174;4.438;2024-01-15T01:58:53;11.77;;;2.93;;
26080;SDS011;13991;51.174;4.438;2024-01-15T02:01:19;12.37;;;3.00;;
26080;SDS011;13991;51.174;4.438;2024-01-15T02:03:44;9.53;;;2.80;;
26080;SDS011;13991;51.174;4.438;2024-01-15T02:06:10;14.63;;;3.07;;
26080;SDS011;13991;51.174;4.438;2024-01-15T02:08:36;18.77;;;3.90;;
26080;SDS011;13991;51.174;4.438;2024-01-15T02:11:02;14.67;;;3.20;;
26080;SDS011;13991;51.174;4.438;2024-01-15T02:13:28;14.93;;;3.10;;
26080;SDS011;13991;51.174;4.438;2024-01-15T02:15:53;7.97;;;2.83;;
26080;SDS011;13991;51.174;4.438;2024-01-15T02:18:19;6.87;;;2.73;;
26080;SDS011;13991;51.174;4.438;2024-01-15T02:20:45;13.10;;;2.70;;
26080;SDS011;13991;51.174;4.438;2024-01-15T02:23:12;16.93;;;2.60;;
26080;SDS011;13991;51.174;4.438;2024-01-15T02:25:45;12.47;;;2.70;;
26080;SDS011;13991;51.174;4.438;2024-01-15T02:28:15;12.37;;;2.90;;
26080;SDS011;13991;51.174;4.438;2024-01-15T02:30:42;13.17;;;2.63;;
26080;SDS011;13991;51.174;4.438;2024-01-15T02:33:09;13.60;;;2.80;;
26080;SDS011;13991;51.174;4.438;2024-01-15T02:35:36;13.60;;;2.57;;
26080;SDS011;13991;51.174;4.438;2024-01-15T02:38:02;8.83;;;2.10;;
26080;SDS011;13991;51.174;4.438;2024-01-15T02:40:28;14.37;;;2.87;;
26080;SDS011;13991;51.174;4.438;2024-01-15T02:42:54;13.43;;;2.43;;
26080;SDS011;13991;51.174;4.438;2024-01-15T02:45:19;14.03;;;3.07;;
26080;SDS011;13991;51.174;4.438;2024-01-15T02:47:46;13.17;;;2.57;;
26080;SDS011;13991;51.174;4.438;2024-01-15T02:50:11;16.17;;;2.77;;
26080;SDS011;13991;51.174;4.438;2024-01-15T02:52:37;7.67;;;1.70;;
26080;SDS011;13991;51.174;4.438;2024-01-15T02:55:03;16.93;;;2.13;;
26080;SDS011;13991;51.174;4.438;2024-01-15T02:57:29;16.07;;;2.50;;
26080;SDS011;13991;51.174;4.438;2024-01-15T02:59:54;8.27;;;2.20;;
26080;SDS011;13991;51.174;4.438;2024-01-15T03:02:20;22.47;;;2.40;;
26080;SDS011;13991;51.174;4.438;2024-01-15T03:04:45;18.93;;;1.67;;
26080;SDS011;13991;51.174;4.438;2024-01-15T03:07:11;10.13;;;1.90;;
26080;SDS011;13991;51.174;4.438;2024-01-15T03:09:37;13.77;;;2.23;;
26080;SDS011;13991;51.174;4.438;2024-01-15T03:12:03;22.50;;;2.73;;
26080;SDS011;13991;51.174;4.438;2024-01-15T03:14:29;13.53;;;1.07;;
26080;SDS011;13991;51.174;4.438;2024-01-15T03:16:55;21.50;;;1.77;;
26080;SDS011;13991;51.174;4.438;2024-01-15T03:19:21;10.10;;;1.20;;
26080;SDS011;13991;51.174;4.438;2024-01-15T03:21:46;14.53;;;1.50;;
26080;SDS011;13991;51.174;4.438;2024-01-15T03:24:12;7.27;;;1.10;;
26080;SDS011;13991;51.174;4.438;2024-01-15T03:26:38;10.77;;;1.47;;
26080;SDS011;13991;51.174;4.438;2024-01-15T03:29:03;11.30;;;2.00;;
26080;SDS011;13991;51.174;4.438;2024-01-15T03:31:29;16.80;;;2.00;;
26080;SDS011;13991;51.174;4.438;2024-01-15T03:33:56;9.57;;;0.87;;
26080;SDS011;13991;51.174;4.438;2024-01-15T03:36:22;18.13;;;1.37;;
26080;SDS011;13991;51.174;4.438;2024-01-15T03:38:47;11.00;;;1.10;;
26080;SDS011;13991;51.174;4.438;2024-01-15T03:41:13;15.67;;;1.80;;
26080;SDS011;13991;51.174;4.438;2024-01-15T03:43:39;8.23;;;1.00;;
26080;SDS011;13991;51.174;4.438;2024-01-15T03:46:05;12.10;;;1.20;;
26080;SDS011;13991;51.174;4.438;2024-01-15T03:48:31;14.07;;;1.10;;
26080;SDS011;13991;51.174;4.438;2024-01-15T03:50:56;8.23;;;1.40;;
26080;SDS011;13991;51.174;4.438;2024-01-15T03:53:22;14.60;;;1.63;;
26080;SDS011;13991;51.174;4.438;2024-01-15T03:55:48;9.03;;;1.20;;
26080;SDS011;13991;51.174;4.438;2024-01-15T03:58:14;12.07;;;1.20;;
26080;SDS011;13991;51.174;4.438;2024-01-15T04:00:40;10.57;;;1.93;;
26080;SDS011;13991;51.174;4.438;2024-01-15T04:03:06;5.57;;;1.93;;
26080;SDS011;13991;51.174;4.438;2024-01-15T04:05:32;8.30;;;2.17;;
26080;SDS011;13991;51.174;4.438;2024-01-15T04:07:58;11.47;;;2.40;;
26080;SDS011;13991;51.174;4.438;2024-01-15T04:10:23;6.30;;;1.80;;
26080;SDS011;13991;51.174;4.438;2024-01-15T04:12:49;15.47;;;2.23;;
26080;SDS011;13991;51.174;4.438;2024-01-15T04:15:15;7.53;;;2.83;;
26080;SDS011;13991;51.174;4.438;2024-01-15T04:17:40;6.27;;;2.23;;
26080;SDS011;13991;51.174;4.438;2024-01-15T04:20:06;14.70;;;2.47;;
26080;SDS011;13991;51.174;4.438;2024-01-15T04:22:33;13.63;;;2.70;;
26080;SDS011;13991;51.174;4.438;2024-01-15T04:25:00;24.13;;;3.03;;
26080;SDS011;13991;51.174;4.438;2024-01-15T04:27:26;14.50;;;3.00;;
26080;SDS011;13991;51.174;4.438;2024-01-15T04:29:51;10.60;;;3.10;;
26080;SDS011;13991;51.174;4.438;2024-01-15T04:32:18;6.17;;;2.63;;
26080;SDS011;13991;51.174;4.438;2024-01-15T04:34:43;10.07;;;3.10;;
26080;SDS011;13991;51.174;4.438;2024-01-15T04:37:09;19.17;;;2.90;;
26080;SDS011;13991;51.174;4.438;2024-01-15T04:39:35;17.13;;;3.53;;
26080;SDS011;13991;51.174;4.438;2024-01-15T04:42:01;10.83;;;2.73;;
26080;SDS011;13991;51.174;4.438;2024-01-15T04:44:26;13.40;;;3.17;;
26080;SDS011;13991;51.174;4.438;2024-01-15T04:46:52;15.23;;;3.60;;
26080;SDS011;13991;51.174;4.438;2024-01-15T04:49:18;10.27;;;3.60;;
26080;SDS011;13991;51.174;4.438;2024-01-15T04:51:43;21.73;;;3.37;;
26080;SDS011;13991;51.174;4.438;2024-01-15T04:54:09;11.47;;;3.23;;
26080;SDS011;13991;51.174;4.438;2024-01-15T04:56:35;15.90;;;3.30;;
26080;SDS011;13991;51.174;4.438;2024-01-15T04:59:00;8.87;;;2.70;;
26080;SDS011;13991;51.174;4.438;2024-01-15T05:01:29;13.90;;;2.87;;
26080;SDS011;13991;51.174;4.438;2024-01-15T05:03:58;26.43;;;3.13;;
26080;SDS011;13991;51.174;4.438;2024-01-15T05:06:24;17.33;;;3.57;;
26080;SDS011;13991;51.174;4.438;2024-01-15T05:08:50;10.37;;;2.63;;
26080;SDS011;13991;51.174;4.438;2024-01-15T05:11:15;17.27;;;3.00;;
26080;SDS011;13991;51.174;4.438;2024-01-15T05:13:41;11.77;;;2.47;;
26080;SDS011;13991;51.174;4.438;2024-01-15T05:16:07;21.23;;;4.80;;
26080;SDS011;13991;51.174;4.438;2024-01-15T05:18:32;12.23;;;2.70;;
26080;SDS011;13991;51.174;4.438;2024-01-15T05:20:58;16.63;;;2.50;;
26080;SDS011;13991;51.174;4.438;2024-01-15T05:23:24;18.57;;;2.93;;
26080;SDS011;13991;51.174;4.438;2024-01-15T05:25:49;8.20;;;2.33;;
26080;SDS011;13991;51.174;4.438;2024-01-15T05:28:15;12.87;;;2.60;;
26080;SDS011;13991;51.174;4.438;2024-01-15T05:30:41;9.73;;;2.70;;
26080;SDS011;13991;51.174;4.438;2024-01-15T05:33:06;15.77;;;2.03;;
26080;SDS011;13991;51.174;4.438;2024-01-15T05:35:32;19.50;;;2.70;;
26080;SDS011;13991;51.174;4.438;2024-01-15T05:37:58;18.50;;;2.87;;
26080;SDS011;13991;51.174;4.438;2024-01-15T05:40:24;7.70;;;2.17;;
26080;SDS011;13991;51.174;4.438;2024-01-15T05:42:50;6.07;;;2.43;;
26080;SDS011;13991;51.174;4.438;2024-01-15T05:45:15;20.67;;;2.67;;
26080;SDS011;13991;51.174;4.438;2024-01-15T05:47:41;8.97;;;2.07;;
26080;SDS011;13991;51.174;4.438;2024-01-15T05:50:07;25.77;;;3.60;;
26080;SDS011;13991;51.174;4.438;2024-01-15T05:52:33;7.03;;;2.00;;
26080;SDS011;13991;51.174;4.438;2024-01-15T05:54:58;17.70;;;1.93;;
26080;SDS011;13991;51.174;4.438;2024-01-15T05:57:24;16.50;;;2.17;;
26080;SDS011;13991;51.174;4.438;2024-01-15T05:59:50;13.33;;;2.10;;
26080;SDS011;13991;51.174;4.438;2024-01-15T06:02:16;18.30;;;2.30;;
26080;SDS011;13991;51.174;4.438;2024-01-15T06:04:41;17.10;;;2.70;;
26080;SDS011;13991;51.174;4.438;2024-01-15T06:07:07;15.40;;;2.37;;
26080;SDS011;13991;51.174;4.438;2024-01-15T06:09:33;17.33;;;3.13;;
26080;SDS011;13991;51.174;4.438;2024-01-15T06:11:58;15.10;;;2.00;;
26080;SDS011;13991;51.174;4.438;2024-01-15T06:14:24;20.47;;;2.57;;
26080;SDS011;13991;51.174;4.438;2024-01-15T06:16:50;11.27;;;2.10;;
26080;SDS011;13991;51.174;4.438;2024-01-15T06:19:15;14.17;;;2.80;;
26080;SDS011;13991;51.174;4.438;2024-01-15T06:21:41;25.50;;;3.67;;
26080;SDS011;13991;51.174;4.438;2024-01-15T06:24:07;13.07;;;2.93;;
26080;SDS011;13991;51.174;4.438;2024-01-15T06:26:34;12.33;;;2.87;;
26080;SDS011;13991;51.174;4.438;2024-01-15T06:29:00;5.47;;;1.60;;
26080;SDS011;13991;51.174;4.438;2024-01-15T06:31:25;26.50;;;2.03;;
26080;SDS011;13991;51.174;4.438;2024-01-15T06:33:51;20.73;;;2.57;;
26080;SDS011;13991;51.174;4.438;2024-01-15T06:36:17;22.60;;;2.63;;
26080;SDS011;13991;51.174;4.438;2024-01-15T06:38:43;17.13;;;2.30;;
26080;SDS011;13991;51.174;4.438;2024-01-15T06:41:09;19.57;;;2.13;;
26080;SDS011;13991;51.174;4.438;2024-01-15T06:43:35;12.50;;;3.47;;
26080;SDS011;13991;51.174;4.438;2024-01-15T06:46:00;29.77;;;2.57;;
26080;SDS011;13991;51.174;4.438;2024-01-15T06:48:26;10.53;;;2.03;;
26080;SDS011;13991;51.174;4.438;2024-01-15T06:50:52;12.20;;;2.20;;
26080;SDS011;13991;51.174;4.438;2024-01-15T06:53:17;9.43;;;1.43;;
26080;SDS011;13991;51.174;4.438;2024-01-15T06:55:43;14.40;;;2.77;;
26080;SDS011;13991;51.174;4.438;2024-01-15T06:58:09;7.73;;;1.60;;
26080;SDS011;13991;51.174;4.438;2024-01-15T07:00:34;19.23;;;3.33;;
26080;SDS011;13991;51.174;4.438;2024-01-15T07:03:00;13.90;;;2.43;;
26080;SDS011;13991;51.174;4.438;2024-01-15T07:05:26;11.27;;;1.57;;
26080;SDS011;13991;51.174;4.438;2024-01-15T07:07:51;17.73;;;2.03;;
26080;SDS011;13991;51.174;4.438;2024-01-15T07:10:17;17.80;;;1.60;;
26080;SDS011;13991;51.174;4.438;2024-01-15T07:12:43;18.67;;;1.70;;
26080;SDS011;13991;51.174;4.438;2024-01-15T07:15:09;11.83;;;2.10;;
26080;SDS011;13991;51.174;4.438;2024-01-15T07:17:35;21.60;;;2.93;;
26080;SDS011;13991;51.174;4.438;2024-01-15T07:20:01;21.57;;;2.43;;
26080;SDS011;13991;51.174;4.438;2024-01-15T07:22:27;15.27;;;2.37;;
26080;SDS011;13991;51.174;4.438;2024-01-15T07:24:52;9.40;;;1.80;;
26080;SDS011;13991;51.174;4.438;2024-01-15T07:27:19;21.60;;;2.88;;
26080;SDS011;13991;51.174;4.438;2024-01-15T07:29:45;17.80;;;1.70;;
26080;SDS011;13991;51.174;4.438;2024-01-15T07:32:11;20.23;;;1.53;;
26080;SDS011;13991;51.174;4.438;2024-01-15T07:34:37;13.27;;;1.93;;
26080;SDS011;13991;51.174;4.438;2024-01-15T07:37:02;12.73;;;1.83;;
26080;SDS011;13991;51.174;4.438;2024-01-15T07:39:28;11.70;;;1.93;;
26080;SDS011;13991;51.174;4.438;2024-01-15T07:41:55;16.90;;;2.07;;
26080;SDS011;13991;51.174;4.438;2024-01-15T07:44:21;17.63;;;1.93;;
26080;SDS011;13991;51.174;4.438;2024-01-15T07:46:47;19.93;;;2.40;;
26080;SDS011;13991;51.174;4.438;2024-01-15T07:49:12;21.83;;;1.97;;
26080;SDS011;13991;51.174;4.438;2024-01-15T07:51:38;15.07;;;3.63;;
26080;SDS011;13991;51.174;4.438;2024-01-15T07:54:08;21.13;;;2.17;;
26080;SDS011;13991;51.174;4.438;2024-01-15T07:56:52;11.53;;;1.43;;
26080;SDS011;13991;51.174;4.438;2024-01-15T07:59:24;15.77;;;1.97;;
26080;SDS011;13991;51.174;4.438;2024-01-15T08:01:51;15.53;;;2.07;;
26080;SDS011;13991;51.174;4.438;2024-01-15T08:04:17;19.07;;;1.70;;
26080;SDS011;13991;51.174;4.438;2024-01-15T08:06:43;9.00;;;1.83;;
26080;SDS011;13991;51.174;4.438;2024-01-15T08:09:10;7.73;;;1.83;;
26080;SDS011;13991;51.174;4.438;2024-01-15T08:11:38;14.50;;;1.97;;
26080;SDS011;13991;51.174;4.438;2024-01-15T08:14:05;15.23;;;1.73;;
26080;SDS011;13991;51.174;4.438;2024-01-15T08:16:31;6.60;;;1.80;;
26080;SDS011;13991;51.174;4.438;2024-01-15T08:18:56;16.53;;;1.40;;
26080;SDS011;13991;51.174;4.438;2024-01-15T08:21:22;22.37;;;2.70;;
26080;SDS011;13991;51.174;4.438;2024-01-15T08:23:48;11.50;;;1.00;;
26080;SDS011;13991;51.174;4.438;2024-01-15T08:26:13;16.23;;;1.30;;
26080;SDS011;13991;51.174;4.438;2024-01-15T08:28:39;11.00;;;1.37;;
26080;SDS011;13991;51.174;4.438;2024-01-15T08:31:05;15.80;;;1.77;;
26080;SDS011;13991;51.174;4.438;2024-01-15T08:33:30;12.53;;;1.50;;
26080;SDS011;13991;51.174;4.438;2024-01-15T08:35:56;23.20;;;1.40;;
26080;SDS011;13991;51.174;4.438;2024-01-15T08:38:22;12.23;;;1.70;;
26080;SDS011;13991;51.174;4.438;2024-01-15T08:40:48;11.50;;;1.33;;
26080;SDS011;13991;51.174;4.438;2024-01-15T08:43:14;4.93;;;0.97;;
26080;SDS011;13991;51.174;4.438;2024-01-15T08:45:40;22.00;;;1.43;;
26080;SDS011;13991;51.174;4.438;2024-01-15T08:48:06;13.90;;;1.43;;
26080;SDS011;13991;51.174;4.438;2024-01-15T08:50:32;17.40;;;1.87;;
26080;SDS011;13991;51.174;4.438;2024-01-15T08:52:58;19.47;;;1.67;;
26080;SDS011;13991;51.174;4.438;2024-01-15T08:55:24;9.83;;;1.70;;
26080;SDS011;13991;51.174;4.438;2024-01-15T08:57:50;26.23;;;1.83;;
26080;SDS011;13991;51.174;4.438;2024-01-15T09:00:16;13.73;;;1.67;;
26080;SDS011;13991;51.174;4.438;2024-01-15T09:02:42;9.53;;;2.83;;
26080;SDS011;13991;51.174;4.438;2024-01-15T09:05:09;22.97;;;1.27;;
26080;SDS011;13991;51.174;4.438;2024-01-15T09:07:34;22.43;;;2.03;;
26080;SDS011;13991;51.174;4.438;2024-01-15T09:10:00;10.00;;;1.40;;
26080;SDS011;13991;51.174;4.438;2024-01-15T09:12:26;19.60;;;2.73;;
26080;SDS011;13991;51.174;4.438;2024-01-15T09:14:52;15.37;;;1.57;;
26080;SDS011;13991;51.174;4.438;2024-01-15T09:17:19;13.77;;;2.10;;
26080;SDS011;13991;51.174;4.438;2024-01-15T09:19:45;14.90;;;1.73;;
26080;SDS011;13991;51.174;4.438;2024-01-15T09:22:12;13.90;;;1.80;;
26080;SDS011;13991;51.174;4.438;2024-01-15T09:24:40;16.43;;;2.03;;
26080;SDS011;13991;51.174;4.438;2024-01-15T09:27:06;13.53;;;2.67;;
26080;SDS011;13991;51.174;4.438;2024-01-15T09:29:32;11.93;;;1.67;;
26080;SDS011;13991;51.174;4.438;2024-01-15T09:31:58;15.40;;;2.70;;
26080;SDS011;13991;51.174;4.438;2024-01-15T09:34:24;15.30;;;1.73;;
26080;SDS011;13991;51.174;4.438;2024-01-15T09:36:52;17.80;;;1.73;;
26080;SDS011;13991;51.174;4.438;2024-01-15T09:39:18;23.30;;;2.20;;
26080;SDS011;13991;51.174;4.438;2024-01-15T09:41:44;13.57;;;1.70;;
26080;SDS011;13991;51.174;4.438;2024-01-15T09:44:09;13.93;;;1.90;;
26080;SDS011;13991;51.174;4.438;2024-01-15T09:46:37;14.97;;;2.20;;
26080;SDS011;13991;51.174;4.438;2024-01-15T09:49:04;18.80;;;1.80;;
26080;SDS011;13991;51.174;4.438;2024-01-15T09:51:31;11.20;;;1.73;;
26080;SDS011;13991;51.174;4.438;2024-01-15T09:53:57;16.53;;;1.57;;
26080;SDS011;13991;51.174;4.438;2024-01-15T09:56:23;32.83;;;4.63;;
26080;SDS011;13991;51.174;4.438;2024-01-15T09:58:49;14.83;;;1.20;;
26080;SDS011;13991;51.174;4.438;2024-01-15T10:01:17;20.73;;;2.03;;
26080;SDS011;13991;51.174;4.438;2024-01-15T10:03:46;17.00;;;1.83;;
26080;SDS011;13991;51.174;4.438;2024-01-15T10:06:14;14.43;;;1.50;;
26080;SDS011;13991;51.174;4.438;2024-01-15T10:08:47;18.50;;;2.77;;
26080;SDS011;13991;51.174;4.438;2024-01-15T10:11:14;24.10;;;2.37;;
26080;SDS011;13991;51.174;4.438;2024-01-15T10:13:41;10.43;;;2.20;;
26080;SDS011;13991;51.174;4.438;2024-01-15T10:16:11;8.53;;;1.13;;
26080;SDS011;13991;51.174;4.438;2024-01-15T10:18:37;23.63;;;1.93;;
26080;SDS011;13991;51.174;4.438;2024-01-15T10:21:05;12.53;;;1.33;;
26080;SDS011;13991;51.174;4.438;2024-01-15T10:23:33;10.93;;;1.40;;
26080;SDS011;13991;51.174;4.438;2024-01-15T10:25:58;15.37;;;1.63;;
26080;SDS011;13991;51.174;4.438;2024-01-15T10:28:28;26.20;;;1.73;;
26080;SDS011;13991;51.174;4.438;2024-01-15T10:30:56;9.43;;;1.40;;
26080;SDS011;13991;51.174;4.438;2024-01-15T10:33:24;11.23;;;1.37;;
26080;SDS011;13991;51.174;4.438;2024-01-15T10:35:50;8.07;;;1.13;;
26080;SDS011;13991;51.174;4.438;2024-01-15T10:38:20;12.53;;;1.37;;
26080;SDS011;13991;51.174;4.438;2024-01-15T10:40:47;14.00;;;1.13;;
26080;SDS011;13991;51.174;4.438;2024-01-15T10:43:17;20.63;;;2.03;;
26080;SDS011;13991;51.174;4.438;2024-01-15T10:45:49;7.43;;;1.13;;
26080;SDS011;13991;51.174;4.438;2024-01-15T10:48:17;11.77;;;1.20;;
26080;SDS011;13991;51.174;4.438;2024-01-15T10:50:44;9.13;;;1.00;;
26080;SDS011;13991;51.174;4.438;2024-01-15T10:53:15;9.53;;;1.03;;
26080;SDS011;13991;51.174;4.438;2024-01-15T10:55:42;10.63;;;0.90;;
26080;SDS011;13991;51.174;4.438;2024-01-15T10:58:08;21.60;;;1.80;;
26080;SDS011;13991;51.174;4.438;2024-01-15T11:00:37;10.63;;;1.17;;
26080;SDS011;13991;51.174;4.438;2024-01-15T11:03:04;12.87;;;1.50;;
26080;SDS011;13991;51.174;4.438;2024-01-15T11:06:18;13.23;;;1.00;;
26080;SDS011;13991;51.174;4.438;2024-01-15T11:08:50;13.33;;;2.00;;
26080;SDS011;13991;51.174;4.438;2024-01-15T11:11:18;8.37;;;1.83;;
26080;SDS011;13991;51.174;4.438;2024-01-15T11:13:49;11.50;;;1.63;;
26080;SDS011;13991;51.174;4.438;2024-01-15T11:16:17;16.97;;;1.80;;
26080;SDS011;13991;51.174;4.438;2024-01-15T11:18:43;13.83;;;1.40;;
26080;SDS011;13991;51.174;4.438;2024-01-15T11:21:21;21.40;;;1.33;;
26080;SDS011;13991;51.174;4.438;2024-01-15T11:23:52;10.90;;;1.33;;
26080;SDS011;13991;51.174;4.438;2024-01-15T11:29:10;8.87;;;1.13;;
26080;SDS011;13991;51.174;4.438;2024-01-15T11:34:20;22.80;;;1.93;;
26080;SDS011;13991;51.174;4.438;2024-01-15T11:37:06;18.77;;;1.40;;
26080;SDS011;13991;51.174;4.438;2024-01-15T11:42:00;24.13;;;1.90;;
26080;SDS011;13991;51.174;4.438;2024-01-15T11:44:28;13.33;;;1.53;;
26080;SDS011;13991;51.174;4.438;2024-01-15T11:46:58;12.40;;;1.30;;
26080;SDS011;13991;51.174;4.438;2024-01-15T11:52:19;2.10;;;0.47;;
26080;SDS011;13991;51.174;4.438;2024-01-15T11:57:40;2.53;;;0.50;;
26080;SDS011;13991;51.174;4.438;2024-01-15T12:00:14;8.37;;;0.70;;
26080;SDS011;13991;51.174;4.438;2024-01-15T12:02:44;11.47;;;1.60;;
26080;SDS011;13991;51.174;4.438;2024-01-15T12:05:11;9.53;;;1.40;;
26080;SDS011;13991;51.174;4.438;2024-01-15T12:07:39;13.33;;;1.33;;
26080;SDS011;13991;51.174;4.438;2024-01-15T12:10:12;8.20;;;0.87;;
26080;SDS011;13991;51.174;4.438;2024-01-15T12:15:24;10.07;;;1.13;;
26080;SDS011;13991;51.174;4.438;2024-01-15T12:17:51;15.43;;;1.93;;
26080;SDS011;13991;51.174;4.438;2024-01-15T12:20:17;17.03;;;1.87;;
26080;SDS011;13991;51.174;4.438;2024-01-15T12:22:43;14.30;;;1.57;;
26080;SDS011;13991;51.174;4.438;2024-01-15T12:25:09;11.57;;;0.90;;
26080;SDS011;13991;51.174;4.438;2024-01-15T12:27:35;6.67;;;0.83;;
26080;SDS011;13991;51.174;4.438;2024-01-15T12:30:01;9.30;;;1.43;;
26080;SDS011;13991;51.174;4.438;2024-01-15T12:32:27;1.03;;;0.50;;
26080;SDS011;13991;51.174;4.438;2024-01-15T12:34:57;9.60;;;0.70;;
26080;SDS011;13991;51.174;4.438;2024-01-15T12:37:23;2.67;;;0.70;;
26080;SDS011;13991;51.174;4.438;2024-01-15T12:39:51;6.90;;;0.70;;
26080;SDS011;13991;51.174;4.438;2024-01-15T12:42:20;1.10;;;0.50;;
26080;SDS011;13991;51.174;4.438;2024-01-15T12:44:46;0.93;;;0.30;;
26080;SDS011;13991;51.174;4.438;2024-01-15T12:47:12;0.60;;;0.30;;
26080;SDS011;13991;51.174;4.438;2024-01-15T12:49:39;3.70;;;0.70;;
26080;SDS011;13991;51.174;4.438;2024-01-15T12:52:08;3.87;;;0.53;;
26080;SDS011;13991;51.174;4.438;2024-01-15T12:54:34;2.97;;;0.60;;
26080;SDS011;13991;51.174;4.438;2024-01-15T12:57:00;6.87;;;0.60;;
26080;SDS011;13991;51.174;4.438;2024-01-15T12:59:25;3.17;;;0.63;;
26080;SDS011;13991;51.174;4.438;2024-01-15T13:01:51;1.23;;;0.53;;
26080;SDS011;13991;51.174;4.438;2024-01-15T13:04:21;1.60;;;0.60;;
26080;SDS011;13991;51.174;4.438;2024-01-15T13:06:48;1.40;;;0.73;;
26080;SDS011;13991;51.174;4.438;2024-01-15T13:09:14;4.10;;;0.70;;
26080;SDS011;13991;51.174;4.438;2024-01-15T13:11:40;1.57;;;0.60;;
26080;SDS011;13991;51.174;4.438;2024-01-15T13:14:06;2.53;;;0.60;;
26080;SDS011;13991;51.174;4.438;2024-01-15T13:16:31;1.77;;;0.57;;
26080;SDS011;13991;51.174;4.438;2024-01-15T13:18:57;1.60;;;0.50;;
26080;SDS011;13991;51.174;4.438;2024-01-15T13:21:23;1.30;;;0.47;;
26080;SDS011;13991;51.174;4.438;2024-01-15T13:23:49;2.20;;;0.70;;
26080;SDS011;13991;51.174;4.438;2024-01-15T13:26:15;1.07;;;0.63;;
26080;SDS011;13991;51.174;4.438;2024-01-15T13:28:43;6.03;;;0.53;;
26080;SDS011;13991;51.174;4.438;2024-01-15T13:31:09;3.60;;;0.60;;
26080;SDS011;13991;51.174;4.438;2024-01-15T13:33:34;2.47;;;0.83;;
26080;SDS011;13991;51.174;4.438;2024-01-15T13:36:00;2.03;;;0.63;;
26080;SDS011;13991;51.174;4.438;2024-01-15T13:38:26;2.97;;;0.60;;
26080;SDS011;13991;51.174;4.438;2024-01-15T13:40:52;3.23;;;0.50;;
26080;SDS011;13991;51.174;4.438;2024-01-15T13:43:20;3.97;;;1.20;;
26080;SDS011;13991;51.174;4.438;2024-01-15T13:45:46;4.60;;;0.63;;
26080;SDS011;13991;51.174;4.438;2024-01-15T13:48:11;10.93;;;1.00;;
26080;SDS011;13991;51.174;4.438;2024-01-15T13:50:37;1.13;;;0.60;;
26080;SDS011;13991;51.174;4.438;2024-01-15T13:53:03;7.13;;;0.90;;
26080;SDS011;13991;51.174;4.438;2024-01-15T13:55:29;4.57;;;0.83;;
26080;SDS011;13991;51.174;4.438;2024-01-15T13:57:55;6.03;;;0.97;;
26080;SDS011;13991;51.174;4.438;2024-01-15T14:00:21;3.03;;;0.77;;
26080;SDS011;13991;51.174;4.438;2024-01-15T14:02:48;7.37;;;0.70;;
26080;SDS011;13991;51.174;4.438;2024-01-15T14:05:14;2.80;;;0.80;;
26080;SDS011;13991;51.174;4.438;2024-01-15T14:07:40;3.90;;;0.60;;
26080;SDS011;13991;51.174;4.438;2024-01-15T14:10:06;1.40;;;0.50;;
26080;SDS011;13991;51.174;4.438;2024-01-15T14:12:33;10.87;;;0.97;;
26080;SDS011;13991;51.174;4.438;2024-01-15T14:14:59;6.77;;;0.83;;
26080;SDS011;13991;51.174;4.438;2024-01-15T14:17:25;7.17;;;1.20;;
26080;SDS011;13991;51.174;4.438;2024-01-15T14:19:51;5.30;;;0.63;;
26080;SDS011;13991;51.174;4.438;2024-01-15T14:22:16;0.83;;;0.60;;
26080;SDS011;13991;51.174;4.438;2024-01-15T14:24:42;5.27;;;1.10;;
26080;SDS011;13991;51.174;4.438;2024-01-15T14:27:08;13.57;;;1.80;;
26080;SDS011;13991;51.174;4.438;2024-01-15T14:29:34;17.10;;;4.03;;
26080;SDS011;13991;51.174;4.438;2024-01-15T14:32:00;9.23;;;1.10;;
26080;SDS011;13991;51.174;4.438;2024-01-15T14:34:26;9.37;;;1.40;;
26080;SDS011;13991;51.174;4.438;2024-01-15T14:36:52;7.43;;;1.10;;
26080;SDS011;13991;51.174;4.438;2024-01-15T14:39:19;9.73;;;1.70;;
26080;SDS011;13991;51.174;4.438;2024-01-15T14:41:46;6.50;;;1.23;;
26080;SDS011;13991;51.174;4.438;2024-01-15T14:44:12;8.43;;;1.23;;
26080;SDS011;13991;51.174;4.438;2024-01-15T14:46:38;6.60;;;1.40;;
26080;SDS011;13991;51.174;4.438;2024-01-15T14:49:03;12.03;;;1.57;;
26080;SDS011;13991;51.174;4.438;2024-01-15T14:51:29;4.47;;;1.50;;